createdAt,value
2022-12-22T11:52:29.230Z,59.15
2022-12-22T11:55:14.010Z,54.31
2022-12-22T11:57:45.523Z,53.44
2022-12-22T12:00:16.590Z,52.10
2022-12-22T12:03:19.932Z,50.50
2022-12-22T12:06:34.217Z,48.22
2022-12-22T12:09:19.874Z,47.96
2022-12-22T12:11:57.618Z,46.94
2022-12-22T12:14:52.244Z,46.89
2022-12-22T12:17:18.624Z,47.38
2022-12-22T12:20:03.138Z,47.95
2022-12-22T12:22:58.570Z,47.07
2022-12-22T12:25:37.248Z,44.43
2022-12-22T12:28:19.429Z,44.28
2022-12-22T12:31:00.605Z,44.78
2022-12-22T12:33:54.175Z,44.87
2022-12-22T12:36:47.825Z,44.70
2022-12-22T12:39:20.055Z,44.49
2022-12-22T12:42:08.267Z,44.90
2022-12-22T12:44:37.386Z,45.31
2022-12-22T12:47:24.666Z,44.89
2022-12-22T12:49:52.129Z,44.47
2022-12-22T12:52:38.613Z,43.91
2022-12-22T12:55:40.269Z,43.33
2022-12-22T12:58:11.614Z,43.65
2022-12-22T13:00:44.977Z,43.39
2022-12-22T13:06:50.634Z,43.86
2022-12-22T13:12:53.216Z,44.40
2022-12-22T13:15:33.277Z,44.08
2022-12-22T13:18:02.510Z,43.55
2022-12-22T13:20:35.156Z,45.42
2022-12-22T13:23:10.306Z,45.04
2022-12-22T13:25:45.193Z,43.95
2022-12-22T13:28:17.609Z,45.16
2022-12-22T13:31:16.691Z,43.00
2022-12-22T13:33:44.855Z,44.51
2022-12-22T13:36:25.889Z,45.75
2022-12-22T13:39:01.186Z,43.88
2022-12-22T13:41:28.754Z,44.26
2022-12-22T13:44:06.219Z,43.77
2022-12-22T13:46:35.211Z,44.40
2022-12-22T13:49:04.843Z,44.07
2022-12-22T13:51:35.818Z,44.18
2022-12-22T13:54:14.353Z,45.00
2022-12-22T13:56:47.088Z,45.91
2022-12-22T13:59:33.228Z,45.53
2022-12-22T14:02:10.316Z,43.60
2022-12-22T14:04:40.054Z,43.87
2022-12-22T14:07:18.293Z,43.54
2022-12-22T14:09:50.319Z,43.36
2022-12-22T14:12:20.435Z,41.54
2022-12-22T14:14:49.344Z,43.63
2022-12-22T14:17:35.387Z,43.01
2022-12-22T14:20:16.095Z,43.25
2022-12-22T14:22:51.363Z,42.28
2022-12-22T14:25:32.779Z,43.03
2022-12-22T14:28:00.203Z,42.86
2022-12-22T14:30:41.277Z,42.54
2022-12-22T14:33:18.084Z,42.99
2022-12-22T14:35:44.717Z,43.90
2022-12-22T14:38:23.184Z,44.18
2022-12-22T14:40:56.446Z,44.10
2022-12-22T14:43:30.740Z,43.80
2022-12-22T14:46:04.829Z,44.27
2022-12-22T14:48:35.302Z,44.08
2022-12-22T14:51:03.441Z,44.24
2022-12-22T14:53:52.914Z,44.07
2022-12-22T14:56:22.453Z,43.87
2022-12-22T14:58:50.308Z,44.85
2022-12-22T15:01:23.312Z,44.94
2022-12-22T15:04:06.551Z,43.85
2022-12-22T15:06:36.519Z,43.73
2022-12-22T15:09:11.632Z,44.31
2022-12-22T15:11:42.210Z,43.35
2022-12-22T15:14:15.492Z,44.04
2022-12-22T15:16:42.990Z,43.86
2022-12-22T15:19:14.233Z,43.59
2022-12-22T15:21:41.059Z,44.29
2022-12-22T15:24:17.121Z,44.00
2022-12-22T15:26:44.755Z,43.67
2022-12-22T15:29:11.999Z,45.58
2022-12-22T15:31:40.532Z,44.21
2022-12-22T15:34:30.668Z,44.50
2022-12-22T15:36:57.398Z,44.86
2022-12-22T15:39:24.647Z,44.83
2022-12-22T15:41:51.383Z,45.13
2022-12-22T15:44:18.372Z,45.27
2022-12-22T15:46:53.732Z,45.16
2022-12-22T15:49:23.631Z,45.77
2022-12-22T15:51:54.325Z,45.46
2022-12-22T15:54:21.758Z,46.17
2022-12-22T15:56:51.492Z,46.31
2022-12-22T15:59:25.600Z,46.94
2022-12-22T16:01:58.364Z,46.62
2022-12-22T16:04:28.631Z,45.74
2022-12-22T16:06:56.333Z,46.27
2022-12-22T16:09:31.290Z,47.12
2022-12-22T16:11:58.336Z,45.97
2022-12-22T16:14:24.991Z,46.25
2022-12-22T16:16:51.579Z,46.86
2022-12-22T16:19:18.901Z,47.71
2022-12-22T16:21:47.921Z,46.58
2022-12-22T16:24:26.368Z,46.51
2022-12-22T16:26:56.710Z,46.38
2022-12-22T16:29:23.944Z,47.22
2022-12-22T16:31:50.667Z,46.22
2022-12-22T16:34:17.303Z,47.52
2022-12-22T16:36:43.924Z,48.07
2022-12-22T16:39:10.871Z,46.40
2022-12-22T16:41:37.556Z,46.79
2022-12-22T16:44:08.181Z,46.44
2022-12-22T16:46:38.057Z,47.45
2022-12-22T16:49:09.795Z,47.15
2022-12-22T16:51:44.374Z,47.30
2022-12-22T16:54:16.743Z,46.55
2022-12-22T16:56:45.473Z,46.21
2022-12-22T16:59:12.174Z,46.52
2022-12-22T17:01:43.760Z,46.09
2022-12-22T17:04:14.435Z,45.69
2022-12-22T17:06:42.568Z,46.26
2022-12-22T17:09:20.237Z,46.79
2022-12-22T17:11:47.395Z,45.61
2022-12-22T17:14:23.148Z,45.79
2022-12-22T17:16:50.540Z,45.96
2022-12-22T17:19:17.168Z,45.50
2022-12-22T17:21:43.836Z,46.43
2022-12-22T17:24:15.027Z,46.61
2022-12-22T17:26:42.341Z,46.31
2022-12-22T17:29:26.181Z,46.99
2022-12-22T17:31:56.487Z,48.01
2022-12-22T17:34:23.273Z,46.55
2022-12-22T17:36:50.489Z,47.67
2022-12-22T17:39:23.757Z,47.81
2022-12-22T17:41:56.186Z,47.01
2022-12-22T17:44:25.023Z,48.47
2022-12-22T17:46:51.903Z,47.72
2022-12-22T17:49:19.955Z,48.54
2022-12-22T17:51:47.040Z,47.95
2022-12-22T17:54:29.185Z,47.90
2022-12-22T17:57:02.611Z,47.43
2022-12-22T17:59:30.012Z,47.09
2022-12-22T18:01:56.767Z,47.95
2022-12-22T18:04:24.708Z,47.80
2022-12-22T18:06:51.590Z,47.40
2022-12-22T18:09:25.069Z,47.29
2022-12-22T18:11:52.999Z,47.64
2022-12-22T18:14:22.234Z,47.27
2022-12-22T18:16:48.869Z,47.80
2022-12-22T18:19:15.477Z,47.30
2022-12-22T18:21:42.154Z,47.24
2022-12-22T18:24:16.363Z,46.59
2022-12-22T18:26:43.359Z,47.38
2022-12-22T18:29:16.957Z,47.17
2022-12-22T18:31:44.207Z,47.10
2022-12-22T18:34:11.799Z,47.29
2022-12-22T18:36:39.727Z,48.07
2022-12-22T18:39:08.466Z,46.90
2022-12-22T18:41:38.423Z,46.77
2022-12-22T18:44:09.739Z,46.76
2022-12-22T18:46:36.314Z,47.36
2022-12-22T18:49:05.850Z,47.36
2022-12-22T18:51:32.902Z,47.44
2022-12-22T18:53:59.433Z,48.59
2022-12-22T18:56:26.009Z,48.50
2022-12-22T18:58:52.569Z,48.63
